Dzhezkazgan, Zhezkazgan Airport (UAKD)

NameZhezkazgan Airport
CityDzhezkazgan
CountryKazakhstan
ICAOUAKD
IATADZN
Altitude116 m
CoordinatesGoogle Map
Live Air TrafficLiveATC.net
METARUAKD 220800Z 26007MPS 9999 BKN063 OVC100 26/07 Q1014 R22/0///65 NOSIG RMK QFE727/0969
2018-08-22 08:00:00 Wind: West-Southwest (260°) 7 m/s - Visibility: > 10000 m - Temperature: 26 °C - Dew point: 7 °C - Humidity: 29.8% - Pressure: 1014 hPa
Statistics

The table below shows the detailed information of all flights to/from Dzhezkazgan, Zhezkazgan Airport (UAKD).